Time;durP1;ratioP1;P1;durP2;ratioP2;P2;SDS_P1;SDS_P2;PMS_P1;PMS_P2;Temp;Humidity;BMP_temperature;BMP_pressure;BME280_temperature;BME280_humidity;BME280_pressure;Samples;Min_cycle;Max_cycle;Signal;HPM_P1;HPM_P2
2020/12/22 00:01:07;;;;;;;;;;;13.90;99.90;;;;;;6184661;23;20024;-92
2020/12/22 00:08:02;;;;;;;1.23;0.85;;;;;;;;;;6247455;22;20030;-92
2020/12/22 00:11:47;;;;;;;4.18;1.23;;;;;;;;;;6314938;22;20079;-92
2020/12/22 00:14:38;;;;;;;1.35;0.80;;;;;;;;;;6297922;22;20010;-92
2020/12/22 00:17:54;;;;;;;0.88;0.70;;;13.80;99.90;;;;;;6303716;22;20020;-92
2020/12/22 00:20:54;;;;;;;4.50;1.10;;;;;;;;;;6275281;22;20033;-92
2020/12/22 00:23:41;;;;;;;0.50;0.50;;;;;;;;;;6329153;22;20324;-91
2020/12/22 00:26:50;;;;;;;4.07;1.00;;;;;;;;;;6298992;22;20025;-92
2020/12/22 00:29:46;;;;;;;2.08;0.93;;;;;;;;;;6322971;22;20020;-94
2020/12/22 00:33:21;;;;;;;2.20;1.17;;;;;;;;;;6239276;22;20029;-93
2020/12/22 00:40:24;;;;;;;1.85;0.73;;;;;;;;;;6213139;23;20016;-93
2020/12/22 00:43:44;;;;;;;0.85;0.82;;;;;;;;;;6235722;23;20015;-92
2020/12/22 00:46:51;;;;;;;2.15;0.80;;;;;;;;;;6214672;23;20016;-93
2020/12/22 00:49:48;;;;;;;1.27;0.82;;;;;;;;;;6240173;23;20020;-92
2020/12/22 00:57:34;;;;;;;5.55;1.33;;;14.20;99.90;;;;;;6234822;23;20005;-93
2020/12/22 01:01:30;;;;;;;6.57;3.03;;;;;;;;;;6172983;23;20062;-93
2020/12/22 01:07:34;;;;;;;4.53;1.30;;;;;;;;;;6314731;22;19999;-94
2020/12/22 01:17:04;;;;;;;2.22;1.02;;;;;;;;;;6272583;22;20056;-93
2020/12/22 01:20:41;;;;;;;8.68;2.85;;;;;;;;;;6273546;22;20076;-93
2020/12/22 01:24:45;;;;;;;2.95;1.40;;;;;;;;;;6283471;22;20024;-93
2020/12/22 01:32:28;;;;;;;2.55;0.88;;;;;;;;;;6115100;23;20018;-93
2020/12/22 01:43:13;;;;;;;4.15;1.02;;;14.10;99.90;;;;;;6303866;22;20072;-92
2020/12/22 01:49:09;;;;;;;7.47;1.20;;;;;;;;;;6303655;22;20076;-92
2020/12/22 01:57:19;;;;;;;8.30;1.35;;;;;;;;;;6302609;22;20071;-91
2020/12/22 02:03:16;;;;;;;2.35;1.33;;;;;;;;;;6302611;22;20011;-92
2020/12/22 02:07:05;;;;;;;6.72;1.35;;;;;;;;;;6259213;22;20004;-92
2020/12/22 02:13:44;;;;;;;10.00;1.42;;;;;;;;;;6333555;22;20074;-93
2020/12/22 02:35:47;;;;;;;3.55;1.23;;;;;;;;;;6289830;22;20030;-92
2020/12/22 02:38:38;;;;;;;4.22;1.50;;;;;;;;;;6249539;22;20284;-93
2020/12/22 02:41:33;;;;;;;3.72;1.08;;;;;;;;;;6219922;23;20016;-94
2020/12/22 02:44:53;;;;;;;3.08;0.90;;;;;;;;;;6240184;23;20030;-92
2020/12/22 02:47:48;;;;;;;0.88;0.70;;;14.10;99.90;;;;;;6239803;23;20030;-92
2020/12/22 02:50:32;;;;;;;3.55;2.08;;;;;;;;;;5412187;23;18021118;-93
2020/12/22 02:53:16;;;;;;;7.88;1.13;;;;;;;;;;6182580;23;20023;-92
2020/12/22 02:56:35;;;;;;;3.13;1.75;;;14.00;99.90;;;;;;6192218;23;20017;-93
2020/12/22 03:00:11;;;;;;;7.72;1.15;;;13.80;99.90;;;;;;6234446;23;20004;-93
2020/12/22 03:03:29;;;;;;;0.70;0.70;;;;;;;;;;6223564;23;20012;-93
2020/12/22 03:06:53;;;;;;;2.83;1.08;;;;;;;;;;6173671;23;20027;-92
2020/12/22 03:09:34;;;;;;;3.72;1.00;;;;;;;;;;6190200;23;20004;-94
2020/12/22 03:12:24;;;;;;;8.02;2.88;;;;;;;;;;6218381;23;20068;-92
2020/12/22 03:15:35;;;;;;;8.30;0.90;;;;;;;;;;6239365;23;20009;-93
2020/12/22 03:19:11;;;;;;;2.63;0.85;;;;;;;;;;6211459;23;20026;-92
2020/12/22 03:22:12;;;;;;;4.05;1.17;;;;;;;;;;6248620;23;20025;-93
2020/12/22 03:29:32;;;;;;;6.80;4.50;;;;;;;;;;6212656;23;20019;-93
2020/12/22 03:36:31;;;;;;;0.70;0.70;;;;;;;;;;6213466;23;20023;-93
2020/12/22 03:43:24;;;;;;;4.75;0.68;;;;;;;;;;6303057;22;20016;-93
2020/12/22 03:50:15;;;;;;;8.30;1.60;;;;;;;;;;6243080;23;20032;-93
2020/12/22 03:53:27;;;;;;;1.33;0.70;;;;;;;;;;6249723;23;20020;-93
2020/12/22 03:56:52;;;;;;;10.73;1.50;;;;;;;;;;6207490;23;20018;-93
2020/12/22 04:00:16;;;;;;;10.00;2.47;;;;;;;;;;6248340;23;20451;-94
2020/12/22 04:03:15;;;;;;;3.85;1.05;;;;;;;;;;6263678;23;20058;-93
2020/12/22 04:06:05;;;;;;;2.90;0.85;;;;;;;;;;6221890;23;20006;-94
2020/12/22 04:09:21;;;;;;;1.92;0.90;;;;;;;;;;6196815;23;20016;-93
2020/12/22 04:12:09;;;;;;;1.98;1.00;;;;;;;;;;6239027;22;20052;-93
2020/12/22 04:19:24;;;;;;;3.80;1.05;;;;;;;;;;6243998;23;20010;-93
2020/12/22 04:22:09;;;;;;;5.78;2.78;;;;;;;;;;6217678;23;20022;-94
2020/12/22 04:25:06;;;;;;;1.40;0.70;;;;;;;;;;6242302;23;20023;-92
2020/12/22 04:28:03;;;;;;;2.75;0.80;;;;;;;;;;6246467;22;20000;-93
2020/12/22 04:34:47;;;;;;;4.55;1.20;;;;;;;;;;6268357;23;20010;-94
2020/12/22 04:37:21;;;;;;;3.58;2.22;;;;;;;;;;6269591;22;20063;-94
2020/12/22 04:39:56;;;;;;;8.10;1.70;;;;;;;;;;6266605;23;20035;-93
2020/12/22 04:42:37;;;;;;;6.95;1.73;;;;;;;;;;6242758;23;20024;-93
2020/12/22 04:45:17;;;;;;;3.20;1.20;;;;;;;;;;6267932;23;20024;-92
2020/12/22 04:48:00;;;;;;;1.60;1.10;;;;;;;;;;6294880;22;20027;-92
2020/12/22 04:50:54;;;;;;;2.33;1.15;;;;;;;;;;6255854;23;20026;-93
2020/12/22 04:54:13;;;;;;;3.00;1.20;;;;;;;;;;6278133;22;20024;-93
2020/12/22 05:01:39;;;;;;;4.57;1.25;;;;;;;;;;6241968;23;20004;-93
2020/12/22 05:05:04;;;;;;;2.10;0.90;;;13.70;99.90;;;;;;6257897;23;20024;-93
2020/12/22 05:08:11;;;;;;;0.77;0.77;;;;;;;;;;6222007;23;20462;-92
2020/12/22 05:15:16;;;;;;;3.38;1.75;;;;;;;;;;6302822;22;20079;-93
2020/12/22 05:22:56;;;;;;;1.10;0.52;;;13.40;99.90;;;;;;6275202;22;20060;-92
2020/12/22 05:33:01;;;;;;;0.60;0.60;;;;;;;;;;6331249;22;20075;-92
2020/12/22 05:45:17;;;;;;;0.98;0.80;;;;;;;;;;6344735;22;20019;-93
2020/12/22 05:57:31;;;;;;;3.85;1.02;;;13.60;99.90;;;;;;6329997;22;20014;-93
2020/12/22 06:00:16;;;;;;;0.60;0.60;;;;;;;;;;6239251;23;20020;-93
2020/12/22 06:06:43;;;;;;;2.05;0.73;;;;;;;;;;6241573;23;20024;-92
2020/12/22 06:09:48;;;;;;;4.38;0.90;;;;;;;;;;6242906;23;20362;-91
2020/12/22 06:12:37;;;;;;;6.85;3.40;;;;;;;;;;6195329;23;20019;-92
2020/12/22 06:25:47;;;;;;;2.25;1.00;;;;;;;;;;6269810;22;20063;-92
2020/12/22 06:28:33;;;;;;;3.83;1.38;;;;;;;;;;6199946;23;20012;-93
2020/12/22 06:31:16;;;;;;;2.00;0.90;;;;;;;;;;6245513;23;20075;-93
2020/12/22 06:33:52;;;;;;;1.27;1.00;;;;;;;;;;6196228;23;20026;-93
2020/12/22 06:36:55;;;;;;;1.77;1.60;;;;;;;;;;6245393;22;20016;-94
2020/12/22 06:39:50;;;;;;;2.03;1.00;;;;;;;;;;6217370;22;20071;-93
2020/12/22 06:43:00;;;;;;;3.05;1.40;;;12.70;99.90;;;;;;6241877;22;20067;-93
2020/12/22 06:46:05;;;;;;;1.63;1.20;;;12.70;99.90;;;;;;6275520;22;20004;-92
2020/12/22 06:49:41;;;;;;;2.63;1.33;;;12.60;99.90;;;;;;6200164;22;20079;-92
2020/12/22 06:52:35;;;;;;;1.25;0.90;;;;;;;;;;6246131;23;20056;-93
2020/12/22 06:55:54;;;;;;;4.03;1.02;;;;;;;;;;6220231;23;20068;-93
2020/12/22 06:58:44;;;;;;;1.20;1.10;;;;;;;;;;6245138;23;20080;-93
2020/12/22 07:01:47;;;;;;;2.05;0.85;;;;;;;;;;6282695;22;20071;-93
2020/12/22 07:04:45;;;;;;;1.00;0.80;;;;;;;;;;6264363;22;20015;-93
2020/12/22 07:07:53;;;;;;;4.05;0.90;;;;;;;;;;6331053;22;20067;-92
2020/12/22 07:11:43;;;;;;;3.13;1.20;;;12.60;99.90;;;;;;6360029;22;20071;-94
2020/12/22 07:18:19;;;;;;;3.78;1.98;;;12.30;99.90;;;;;;6328085;22;20031;-91
2020/12/22 07:28:53;;;;;;;5.20;1.27;;;;;;;;;;6330412;22;20060;-92
2020/12/22 07:32:12;;;;;;;5.03;1.00;;;12.40;99.90;;;;;;6260685;22;20025;-93
2020/12/22 07:35:08;;;;;;;;;;;12.30;99.90;;;;;;6240216;23;20084;-94
2020/12/22 07:38:26;;;;;;;2.55;1.02;;;;;;;;;;6250538;23;19960;-93
2020/12/22 07:41:29;;;;;;;1.63;1.30;;;;;;;;;;6171715;23;20052;-93
2020/12/22 07:44:52;;;;;;;2.55;1.33;;;12.40;99.90;;;;;;6201338;23;20034;31
2020/12/22 07:48:06;;;;;;;4.93;1.90;;;;;;;;;;6221438;22;20067;-93
2020/12/22 07:51:23;;;;;;;2.50;1.02;;;;;;;;;;6221884;22;20071;-94
2020/12/22 07:54:33;;;;;;;1.83;1.17;;;;;;;;;;6247106;22;20008;-93
2020/12/22 07:57:32;;;;;;;3.20;1.20;;;;;;;;;;6247635;22;20059;-93
2020/12/22 08:00:45;;;;;;;2.28;1.33;;;;;;;;;;6289707;22;20079;-93
2020/12/22 08:03:35;;;;;;;5.40;1.92;;;;;;;;;;6276555;22;20019;-92
2020/12/22 08:06:56;;;;;;;2.92;1.42;;;;;;;;;;6249763;22;20020;-93
2020/12/22 08:09:44;;;;;;;5.65;1.90;;;;;;;;;;6250386;22;20083;-92
2020/12/22 08:12:29;;;;;;;1.45;1.02;;;;;;;;;;6249817;22;20052;-92
2020/12/22 08:18:47;;;;;;;4.93;1.25;;;;;;;;;;6273895;22;20059;-92
2020/12/22 08:21:27;;;;;;;1.80;1.35;;;;;;;;;;6249155;22;20059;-93
2020/12/22 08:24:43;;;;;;;4.50;1.60;;;;;;;;;;6181233;23;20028;-92
2020/12/22 08:28:31;;;;;;;2.13;1.40;;;;;;;;;;6243738;23;20048;-91
2020/12/22 08:31:39;;;;;;;6.72;2.20;;;;;;;;;;6276810;22;20037;-91
2020/12/22 08:35:11;;;;;;;3.90;2.20;;;11.90;99.90;;;;;;6292690;22;20018;-92
2020/12/22 08:38:31;;;;;;;5.80;1.52;;;12.10;99.90;;;;;;6303913;22;20064;-91
2020/12/22 08:41:52;;;;;;;2.38;1.70;;;;;;;;;;6290657;22;20055;-92
2020/12/22 08:44:36;;;;;;;4.22;1.77;;;;;;;;;;6302922;22;20063;-91
2020/12/22 08:47:20;;;;;;;3.35;1.73;;;;;;;;;;6279512;22;20055;-92
2020/12/22 08:50:09;;;;;;;7.97;2.17;;;;;;;;;;6281029;22;20055;-91
2020/12/22 08:53:00;;;;;;;1.20;1.10;;;;;;;;;;6303641;22;20064;-91
2020/12/22 08:56:07;;;;;;;1.75;1.25;;;;;;;;;;6324425;22;20051;-92
2020/12/22 08:59:37;;;;;;;1.08;0.93;;;;;;;;;;6302733;22;20055;-93
2020/12/22 09:02:52;;;;;;;1.77;0.88;;;;;;;;;;6312280;22;20008;-92
2020/12/22 09:05:52;;;;;;;1.20;0.90;;;;;;;;;;6302458;22;20014;-91
2020/12/22 09:08:25;;;;;;;1.33;0.90;;;;;;;;;;6277619;22;20060;-92
2020/12/22 09:11:12;;;;;;;4.88;2.15;;;;;;;;;;6304291;22;20067;-92
2020/12/22 09:14:45;;;;;;;;;;;11.90;99.90;;;;;;6312756;22;20063;-91
2020/12/22 09:17:57;;;;;;;4.35;1.17;;;;;;;;;;6266731;22;20030;-94
2020/12/22 09:20:46;;;;;;;1.20;1.05;;;;;;;;;;6277105;22;20102;-92
2020/12/22 09:23:54;;;;;;;4.30;1.33;;;;;;;;;;6302010;22;20051;-91
2020/12/22 09:26:54;;;;;;;2.15;1.35;;;;;;;;;;6314053;22;20067;-92
2020/12/22 09:29:44;;;;;;;1.05;1.02;;;;;;;;;;6276200;22;20059;-92
2020/12/22 09:33:01;;;;;;;6.90;1.58;;;;;;;;;;6313599;22;20087;-92
2020/12/22 09:36:19;;;;;;;5.72;2.67;;;;;;;;;;6230575;22;20089;-91
2020/12/22 09:39:18;;;;;;;;;;;11.70;99.90;;;;;;6239932;23;20012;-92
2020/12/22 09:42:12;;;;;;;5.03;1.38;;;;;;;;;;6250039;22;19946;-92
2020/12/22 09:44:56;;;;;;;2.35;1.08;;;;;;;;;;6260793;22;20012;-91
2020/12/22 09:47:45;;;;;;;2.35;1.20;;;;;;;;;;6299766;22;20063;-91
2020/12/22 09:50:51;;;;;;;2.78;1.40;;;;;;;;;;6280014;22;20056;-91
2020/12/22 09:54:12;;;;;;;3.05;1.90;;;12.30;99.90;;;;;;6256666;22;20433;-92
2020/12/22 09:56:52;;;;;;;1.30;1.20;;;;;;;;;;6250710;22;20055;-91
2020/12/22 09:59:27;;;;;;;6.93;2.25;;;;;;;;;;6251169;22;20017;-90
2020/12/22 10:03:00;;;;;;;7.72;1.35;;;11.80;99.90;;;;;;6260915;22;20055;-91
2020/12/22 10:05:45;;;;;;;2.88;1.40;;;;;;;;;;6226989;22;20071;-91
2020/12/22 10:21:18;;;;;;;5.68;1.80;;;;;;;;;;6311157;22;20067;-90
2020/12/22 10:23:50;;;;;;;1.77;1.23;;;;;;;;;;6271717;22;20024;-90
2020/12/22 10:27:06;;;;;;;2.65;1.50;;;12.10;99.90;;;;;;6226642;22;20010;-90
2020/12/22 10:33:33;;;;;;;2.45;1.67;;;;;;;;;;6290230;22;20003;-90
2020/12/22 10:36:56;;;;;;;6.22;2.10;;;;;;;;;;6295241;22;20011;-90
2020/12/22 10:39:36;;;;;;;3.78;1.90;;;;;;;;;;6302884;22;20015;-91
2020/12/22 10:42:38;;;;;;;;;;;12.40;99.90;;;;;;6329245;22;20033;-91
2020/12/22 11:13:10;;;;;;;6.00;2.42;;;;;;;;;;6257729;22;20023;-94
2020/12/22 11:15:59;;;;;;;9.60;3.72;;;;;;;;;;6228111;22;20012;-91
2020/12/22 11:19:09;;;;;;;5.28;2.42;;;;;;;;;;6219842;22;20014;-92
2020/12/22 11:29:11;;;;;;;8.63;3.13;;;;;;;;;;6269774;22;20063;-92
2020/12/22 11:38:38;;;;;;;10.57;2.60;;;;;;;;;;6302397;22;20016;-91
2020/12/22 11:41:29;;;;;;;7.38;2.35;;;;;;;;;;6254655;22;20003;-91
2020/12/22 11:44:13;;;;;;;3.25;2.20;;;;;;;;;;6253190;22;20072;-91
2020/12/22 11:47:45;;;;;;;7.18;3.08;;;;;;;;;;6261822;22;20063;-91
2020/12/22 11:50:54;;;;;;;4.63;2.90;;;;;;;;;;6292363;22;20349;-92
2020/12/22 11:54:08;;;;;;;6.20;2.00;;;;;;;;;;6286570;22;20055;-90
2020/12/22 11:57:35;;;;;;;4.22;2.00;;;;;;;;;;6299703;22;20067;-91
2020/12/22 12:00:44;;;;;;;3.50;2.08;;;;;;;;;;6273701;22;20003;-90
2020/12/22 12:04:00;;;;;;;8.80;2.50;;;;;;;;;;6304907;22;20063;-89
2020/12/22 12:07:00;;;;;;;9.77;2.10;;;;;;;;;;6287109;22;20109;-89
2020/12/22 12:10:26;;;;;;;9.60;2.58;;;;;;;;;;6283347;22;20074;-90
2020/12/22 12:13:52;;;;;;;4.93;2.30;;;;;;;;;;6284439;22;20024;-90
2020/12/22 12:16:31;;;;;;;9.75;2.28;;;;;;;;;;6273916;22;20086;-89
2020/12/22 12:19:22;;;;;;;4.20;1.90;;;;;;;;;;6312346;22;20070;-90
2020/12/22 12:22:12;;;;;;;5.43;2.13;;;;;;;;;;6316521;22;20079;-89
2020/12/22 12:28:26;;;;;;;4.60;1.92;;;;;;;;;;6285890;22;20012;-92
2020/12/22 12:31:47;;;;;;;5.95;2.10;;;;;;;;;;6260703;22;20071;-90
2020/12/22 12:35:00;;;;;;;4.40;1.70;;;13.40;99.90;;;;;;6266191;22;20079;31
2020/12/22 12:38:22;;;;;;;6.10;2.10;;;;;;;;;;6221488;22;20118;-91
2020/12/22 12:41:26;;;;;;;10.60;3.15;;;;;;;;;;6218874;23;20024;-89
2020/12/22 12:44:10;;;;;;;6.53;3.22;;;;;;;;;;6209827;23;20015;-91
2020/12/22 12:47:48;;;;;;;3.70;1.42;;;13.10;99.90;;;;;;6283888;22;20144;-87
2020/12/22 12:51:06;;;;;;;3.72;2.30;;;;;;;;;;6269467;22;20010;-90
2020/12/22 12:54:02;;;;;;;5.93;2.15;;;;;;;;;;6254537;22;20071;-90
2020/12/22 12:56:58;;;;;;;4.35;2.40;;;;;;;;;;6308028;22;20055;-90
2020/12/22 13:04:50;;;;;;;12.05;3.50;;;;;;;;;;6345132;22;20029;-90
2020/12/22 13:08:34;;;;;;;3.53;1.75;;;;;;;;;;6343285;22;20063;-89
2020/12/22 13:11:48;;;;;;;4.25;1.98;;;;;;;;;;6206382;22;20052;-90
2020/12/22 13:14:33;;;;;;;6.13;2.15;;;;;;;;;;6226366;22;20047;-89
2020/12/22 13:17:24;;;;;;;3.28;1.73;;;;;;;;;;6222780;22;20060;-89
2020/12/22 13:19:53;;;;;;;4.97;2.15;;;;;;;;;;6170721;22;20059;-89
2020/12/22 13:22:52;;;;;;;6.10;2.10;;;;;;;;;;6195200;22;20063;-89
2020/12/22 13:26:06;;;;;;;2.35;1.60;;;;;;;;;;6218221;22;20015;-88
2020/12/22 13:29:08;;;;;;;11.93;5.97;;;;;;;;;;6262253;22;20071;-90
2020/12/22 13:32:10;;;;;;;16.15;6.68;;;13.20;99.90;;;;;;6195777;22;20024;-89
2020/12/22 13:38:54;;;;;;;21.83;8.23;;;13.10;99.90;;;;;;6221349;22;20020;-89
2020/12/22 13:41:55;;;;;;;15.93;9.05;;;;;;;;;;6274134;22;20003;-88
2020/12/22 13:45:05;;;;;;;20.73;8.30;;;13.10;99.90;;;;;;6224046;22;20059;-90
2020/12/22 13:48:10;;;;;;;19.42;10.20;;;;;;;;;;6227171;22;20007;-89
2020/12/22 13:50:51;;;;;;;20.73;9.15;;;;;;;;;;6274146;22;20014;-90
2020/12/22 13:57:58;;;;;;;24.00;13.75;;;;;;;;;;6334125;22;20067;-91
2020/12/22 14:01:34;;;;;;;20.75;9.68;;;;;;;;;;6326929;22;20086;-91
2020/12/22 14:04:55;;;;;;;23.83;12.07;;;;;;;;;;6248945;22;20068;-92
2020/12/22 14:07:58;;;;;;;19.77;9.52;;;;;;;;;;6246477;22;20075;-91
2020/12/22 14:11:13;;;;;;;20.45;11.70;;;;;;;;;;6229520;23;20020;-92
2020/12/22 14:14:11;;;;;;;17.75;9.90;;;;;;;;;;6198037;22;20063;-90
2020/12/22 14:21:36;;;;;;;22.45;9.80;;;;;;;;;;6215445;23;20030;-91
2020/12/22 14:24:26;;;;;;;23.30;10.55;;;;;;;;;;6240953;23;20031;-91
2020/12/22 14:27:29;;;;;;;27.65;12.18;;;;;;;;;;6175695;23;20037;-91
2020/12/22 14:30:40;;;;;;;22.25;9.27;;;12.80;99.90;;;;;;6149732;23;20009;-90
2020/12/22 14:34:14;;;;;;;31.17;11.00;;;;;;;;;;6161021;23;20032;-90
2020/12/22 14:37:23;;;;;;;18.50;9.35;;;;;;;;;;6128876;23;20021;-89
2020/12/22 14:40:15;;;;;;;22.02;10.95;;;;;;;;;;6086775;23;20023;-91
2020/12/22 14:42:51;;;;;;;20.75;10.02;;;;;;;;;;6087248;23;20017;-90
2020/12/22 14:45:39;;;;;;;20.67;11.27;;;;;;;;;;6057750;23;20018;-90
2020/12/22 14:48:20;;;;;;;20.73;10.70;;;;;;;;;;6084103;23;20021;-89
2020/12/22 14:51:04;;;;;;;19.55;10.07;;;;;;;;;;6084618;23;20788;-89
2020/12/22 14:53:42;;;;;;;18.35;9.20;;;;;;;;;;6054489;23;20010;-90
2020/12/22 14:56:32;;;;;;;21.00;12.93;;;;;;;;;;6085664;23;20018;-89
2020/12/22 14:59:23;;;;;;;23.45;11.63;;;;;;;;;;6086852;23;20019;-89
2020/12/22 15:02:13;;;;;;;21.63;10.68;;;;;;;;;;6094730;23;20026;-90
2020/12/22 15:04:53;;;;;;;25.38;12.55;;;12.60;99.90;;;;;;6111925;23;20028;-90
2020/12/22 15:07:52;;;;;;;26.08;12.55;;;12.10;99.90;;;;;;6117288;23;20128;-91
2020/12/22 15:10:47;;;;;;;;;;;;;;;;;;;;;
2020/12/22 15:13:34;;;;;;;25.50;12.88;;;;;;;;;;6155810;23;20009;-90
2020/12/22 15:16:02;;;;;;;25.95;13.38;;;;;;;;;;6183938;23;20076;-90
2020/12/22 15:18:35;;;;;;;28.75;11.07;;;;;;;;;;6209955;23;20025;-89
2020/12/22 15:21:20;;;;;;;25.67;11.68;;;;;;;;;;6176246;23;20038;-90
2020/12/22 15:24:01;;;;;;;29.52;12.77;;;;;;;;;;6247310;23;20004;-89
2020/12/22 15:26:31;;;;;;;25.42;14.25;;;;;;;;;;6218336;23;20016;-89
2020/12/22 15:29:06;;;;;;;30.25;14.18;;;;;;;;;;6243997;23;20020;-88
2020/12/22 15:31:37;;;;;;;30.20;12.13;;;;;;;;;;6220834;23;20087;-88
2020/12/22 15:34:11;;;;;;;27.00;12.73;;;;;;;;;;6267740;23;20016;-88
2020/12/22 15:36:46;;;;;;;34.45;17.40;;;;;;;;;;6271347;23;20048;-88
2020/12/22 15:39:20;;;;;;;39.13;19.40;;;;;;;;;;6242905;23;20024;-88
2020/12/22 15:42:41;;;;;;;35.65;16.40;;;11.80;99.90;;;;;;6268459;22;20023;-88
2020/12/22 15:45:25;;;;;;;34.92;16.35;;;;;;;;;;6241005;23;20020;-89
2020/12/22 15:48:20;;;;;;;;;;;11.90;99.90;;;;;;6282004;22;20072;-90
2020/12/22 15:51:27;;;;;;;37.53;19.67;;;;;;;;;;6242923;23;19906;-91
2020/12/22 15:54:01;;;;;;;33.13;18.98;;;;;;;;;;6277010;22;20037;-90
2020/12/22 15:56:40;;;;;;;52.58;19.48;;;;;;;;;;6324771;22;20062;-90
2020/12/22 15:59:53;;;;;;;23.85;13.40;;;;;;;;;;6270189;22;20414;-89
2020/12/22 16:02:31;;;;;;;22.52;13.80;;;;;;;;;;6269722;22;20031;-91
2020/12/22 16:05:24;;;;;;;20.75;11.90;;;;;;;;;;6249941;22;20000;-90
2020/12/22 16:08:07;;;;;;;34.05;15.35;;;;;;;;;;6274813;22;20029;-91
2020/12/22 16:20:35;;;;;;;23.65;14.05;;;;;;;;;;6253729;23;20073;-91
2020/12/22 16:23:42;;;;;;;29.95;14.50;;;;;;;;;;6214989;23;20008;-92
2020/12/22 16:26:32;;;;;;;26.98;14.43;;;;;;;;;;6214356;22;20034;-91
2020/12/22 16:29:18;;;;;;;24.20;12.02;;;;;;;;;;6214213;22;20007;-89
2020/12/22 16:32:03;;;;;;;21.85;11.88;;;;;;;;;;6245446;22;20015;-91
2020/12/22 16:34:47;;;;;;;25.27;11.63;;;;;;;;;;6259970;22;20020;-90
2020/12/22 16:37:31;;;;;;;20.80;12.30;;;11.60;99.90;;;;;;6251782;22;20055;-91
2020/12/22 16:40:12;;;;;;;23.73;13.27;;;;;;;;;;6288968;22;20067;-90
2020/12/22 16:43:04;;;;;;;21.75;12.60;;;;;;;;;;6232400;22;20007;-91
2020/12/22 16:46:07;;;;;;;21.27;11.43;;;;;;;;;;6274174;22;20031;-91
2020/12/22 16:48:55;;;;;;;23.92;11.52;;;;;;;;;;6266747;22;20006;-90
2020/12/22 16:54:51;;;;;;;20.98;11.07;;;;;;;;;;6247192;22;20079;-90
2020/12/22 16:58:06;;;;;;;23.55;11.15;;;;;;;;;;6246987;22;20063;-91
2020/12/22 17:01:21;;;;;;;22.15;11.65;;;;;;;;;;6274121;22;20029;-90
2020/12/22 17:04:31;;;;;;;23.58;11.57;;;;;;;;;;6273543;22;20007;-91
2020/12/22 17:07:01;;;;;;;22.73;11.52;;;;;;;;;;6226035;22;20034;-91
2020/12/22 17:09:46;;;;;;;24.05;12.10;;;;;;;;;;6227269;22;20076;-92
2020/12/22 17:12:50;;;;;;;22.83;11.63;;;11.50;99.90;;;;;;6225202;22;20010;-91
2020/12/22 17:15:20;;;;;;;22.52;12.25;;;;;;;;;;6250414;22;20008;-88
2020/12/22 17:18:48;;;;;;;25.33;12.23;;;11.50;99.90;;;;;;6274589;22;20055;-91
2020/12/22 17:21:35;;;;;;;27.25;14.80;;;;;;;;;;6298557;22;20014;-91
2020/12/22 17:24:14;;;;;;;25.08;12.95;;;;;;;;;;6226076;22;20024;-91
2020/12/22 17:27:02;;;;;;;27.00;15.60;;;;;;;;;;6277859;22;20023;-92
2020/12/22 17:30:12;;;;;;;;;;;11.30;99.90;;;;;;6257998;22;20019;-90
2020/12/22 17:32:58;;;;;;;32.75;15.65;;;;;;;;;;6242689;23;19945;-90
2020/12/22 17:35:39;;;;;;;28.10;18.05;;;;;;;;;;6240834;23;20012;-89
2020/12/22 17:41:36;;;;;;;28.95;17.00;;;;;;;;;;6207587;23;20064;-92
2020/12/22 17:44:21;;;;;;;29.43;15.47;;;;;;;;;;6190414;23;20021;-92
2020/12/22 17:47:20;;;;;;;29.80;15.25;;;;;;;;;;6218298;22;20012;-94
2020/12/22 17:49:59;;;;;;;31.00;16.63;;;;;;;;;;6220180;23;20016;-92
2020/12/22 17:52:40;;;;;;;32.92;16.50;;;;;;;;;;6240936;23;20024;-91
2020/12/22 17:55:13;;;;;;;27.98;16.10;;;;;;;;;;6218731;23;20020;-91
2020/12/22 17:57:52;;;;;;;31.48;18.85;;;;;;;;;;6218367;22;20000;-91
2020/12/22 18:00:37;;;;;;;34.30;18.60;;;;;;;;;;6200445;23;20056;-92
2020/12/22 18:03:18;;;;;;;32.72;18.83;;;;;;;;;;6217997;23;20020;-93
2020/12/22 18:06:07;;;;;;;30.30;16.33;;;;;;;;;;6262846;23;20027;-91
2020/12/22 18:08:37;;;;;;;36.47;18.90;;;;;;;;;;6217123;22;20024;-91
2020/12/22 18:11:13;;;;;;;33.83;18.88;;;;;;;;;;6221301;23;20297;-93
2020/12/22 18:14:13;;;;;;;35.67;19.23;;;11.50;99.90;;;;;;6246991;22;20023;-91
2020/12/22 18:17:29;;;;;;;31.25;18.60;;;;;;;;;;6249518;22;20052;-91
2020/12/22 18:21:04;;;;;;;38.10;20.52;;;11.50;99.90;;;;;;6271312;22;20115;-91
2020/12/22 18:31:45;;;;;;;34.28;18.77;;;;;;;;;;6279265;22;20013;-93
2020/12/22 18:34:55;;;;;;;36.83;23.20;;;;;;;;;;6226104;22;20008;-92
2020/12/22 18:37:38;;;;;;;40.13;20.63;;;;;;;;;;6274132;22;20063;-92
2020/12/22 18:40:28;;;;;;;44.72;22.60;;;;;;;;;;6229959;22;20016;-91
2020/12/22 18:43:21;;;;;;;40.90;22.83;;;;;;;;;;6275978;22;20020;-91
2020/12/22 18:50:46;;;;;;;34.35;19.80;;;;;;;;;;6273716;22;20016;-92
2020/12/22 18:54:10;;;;;;;31.02;18.65;;;;;;;;;;6295812;22;20080;-91
2020/12/22 18:57:15;;;;;;;34.53;19.35;;;;;;;;;;6247932;22;20022;-91
2020/12/22 19:00:06;;;;;;;34.97;19.67;;;;;;;;;;6253702;22;20107;-91
2020/12/22 19:02:59;;;;;;;33.67;19.02;;;;;;;;;;6254207;22;20020;-92
2020/12/22 19:05:35;;;;;;;39.65;18.42;;;;;;;;;;6225506;22;20008;-92
2020/12/22 19:08:22;;;;;;;40.67;23.02;;;;;;;;;;6240675;22;20060;-92
2020/12/22 19:11:16;;;;;;;37.53;19.80;;;;;;;;;;6193820;23;20024;-92
2020/12/22 19:13:56;;;;;;;36.97;21.23;;;;;;;;;;6219494;22;20028;-92
2020/12/22 19:20:15;;;;;;;37.13;19.35;;;;;;;;;;6268386;22;20056;-92
2020/12/22 19:27:15;;;;;;;29.75;19.02;;;;;;;;;;6218278;23;20016;-92
2020/12/22 19:30:28;;;;;;;34.45;19.73;;;;;;;;;;6245467;23;20072;-92
2020/12/22 19:33:47;;;;;;;39.78;21.13;;;;;;;;;;6292564;22;20023;-92
2020/12/22 19:36:36;;;;;;;37.55;23.33;;;;;;;;;;6299266;22;19999;-91
2020/12/22 19:39:46;;;;;;;41.75;23.65;;;;;;;;;;6325640;22;20078;-90
2020/12/22 19:43:03;;;;;;;42.45;21.70;;;;;;;;;;6343952;22;20094;-90
2020/12/22 19:46:31;;;;;;;35.20;19.73;;;;;;;;;;6334452;22;20070;-91
2020/12/22 19:50:10;;;;;;;35.05;20.73;;;11.10;99.90;;;;;;6293675;22;20003;-90
2020/12/22 19:54:00;;;;;;;36.97;21.75;;;11.20;99.90;;;;;;6269773;22;20071;-89
2020/12/22 19:57:38;;;;;;;36.20;20.20;;;;;;;;;;6286011;22;20074;-91
2020/12/22 20:01:18;;;;;;;38.42;21.45;;;;;;;;;;6252430;22;20067;-91
2020/12/22 20:04:40;;;;;;;34.30;18.83;;;11.10;99.90;;;;;;6269975;22;20083;-91
2020/12/22 20:08:01;;;;;;;35.67;18.30;;;;;;;;;;6265944;22;20009;-91
2020/12/22 20:11:01;;;;;;;33.13;19.73;;;;;;;;;;6307925;22;20078;-91
2020/12/22 20:14:04;;;;;;;39.00;19.92;;;;;;;;;;6335768;22;20051;-91
2020/12/22 20:17:21;;;;;;;30.85;17.27;;;;;;;;;;6293475;22;20042;-90
2020/12/22 20:20:25;;;;;;;43.55;21.58;;;;;;;;;;6232753;23;20080;-89
2020/12/22 20:36:12;;;;;;;17.40;7.43;;;;;;;;;;6246656;22;20080;-90
2020/12/22 20:39:10;;;;;;;20.75;8.27;;;;;;;;;;6211142;22;20025;-90
2020/12/22 20:43:19;;;;;;;17.95;8.05;;;;;;;;;;6302141;22;20051;-90
2020/12/22 20:50:34;;;;;;;15.27;7.22;;;;;;;;;;6270075;22;20036;-91
2020/12/22 21:01:44;;;;;;;20.25;7.15;;;;;;;;;;6308406;22;20047;-91
2020/12/22 21:04:49;;;;;;;13.85;7.00;;;;;;;;;;6305900;22;20066;-93
2020/12/22 21:11:18;;;;;;;22.27;7.60;;;;;;;;;;6302874;22;20063;-92
2020/12/22 21:16:01;;;;;;;21.65;8.25;;;11.10;99.90;;;;;;6271747;22;20071;-93
2020/12/22 21:23:12;;;;;;;19.58;6.78;;;;;;;;;;6246785;22;20076;-92
2020/12/22 21:26:36;;;;;;;13.18;6.13;;;;;;;;;;6255536;22;20007;-91
2020/12/22 21:30:15;;;;;;;18.80;10.10;;;11.10;99.90;;;;;;6204232;23;20024;-91
2020/12/22 21:38:15;;;;;;;19.60;9.40;;;;;;;;;;6333089;22;20091;-91
2020/12/22 21:41:06;;;;;;;;;;;;;;;;;;6281264;22;20015;-93
2020/12/22 21:43:57;;;;;;;20.35;8.43;;;;;;;;;;6307825;22;19910;-92
2020/12/22 21:48:25;;;;;;;19.92;8.02;;;11.20;99.90;;;;;;6230748;22;20072;-92
2020/12/22 21:52:14;;;;;;;21.50;7.85;;;11.20;99.90;;;;;;6246804;22;20064;-92
2020/12/22 21:59:14;;;;;;;26.48;8.43;;;;;;;;;;6333926;22;20075;-91
2020/12/22 22:10:42;;;;;;;18.15;7.45;;;;;;;;;;6331948;22;20055;-90
2020/12/22 22:28:24;;;;;;;18.48;7.20;;;;;;;;;;6260570;22;20012;-91
2020/12/22 22:34:46;;;;;;;19.02;6.53;;;;;;;;;;6331913;22;20020;-90
2020/12/22 22:37:49;;;;;;;21.73;6.28;;;;;;;;;;6297539;22;20007;-92
2020/12/22 22:41:01;;;;;;;26.05;10.20;;;;;;;;;;6279414;22;20019;-91
2020/12/22 22:43:54;;;;;;;18.00;7.18;;;;;;;;;;6277995;22;20011;-91
2020/12/22 22:56:31;;;;;;;22.45;8.02;;;;;;;;;;6300908;22;20023;-90
2020/12/22 22:59:48;;;;;;;41.80;9.57;;;;;;;;;;6300868;22;20071;-90
2020/12/22 23:03:08;;;;;;;31.50;8.68;;;12.00;99.90;;;;;;6289657;22;20022;-90
2020/12/22 23:10:51;;;;;;;31.63;10.00;;;;;;;;;;6313360;22;20071;-91
2020/12/22 23:34:55;;;;;;;30.77;8.32;;;;;;;;;;6238561;23;20084;-92
2020/12/22 23:53:56;;;;;;;16.92;4.88;;;;;;;;;;6292993;22;20024;-93
